createdAt,value
2016-07-26T00:02:07.923Z,0
2016-07-26T00:05:21.477Z,0
2016-07-26T00:08:34.830Z,0
2016-07-26T00:11:54.452Z,0
2016-07-26T00:14:57.927Z,0
2016-07-26T00:18:11.603Z,0
2016-07-26T00:21:25.387Z,0
2016-07-26T00:24:39.177Z,0
2016-07-26T00:27:53.130Z,0
2016-07-26T00:31:07.145Z,0
2016-07-26T00:34:21.163Z,0
2016-07-26T00:37:34.351Z,0
2016-07-26T00:40:54.279Z,0
2016-07-26T00:43:57.571Z,0
2016-07-26T00:47:10.904Z,0
2016-07-26T00:50:24.810Z,0
2016-07-26T00:53:38.488Z,0
2016-07-26T00:56:52.198Z,0
2016-07-26T01:00:05.968Z,0
2016-07-26T01:03:19.475Z,0
2016-07-26T01:06:33.161Z,0
2016-07-26T01:09:53.042Z,0
2016-07-26T01:12:56.243Z,0
2016-07-26T01:16:09.928Z,0
2016-07-26T01:19:23.710Z,0
2016-07-26T01:22:37.664Z,0
2016-07-26T01:25:57.433Z,0
2016-07-26T01:29:00.715Z,0
2016-07-26T01:32:14.332Z,0
2016-07-26T01:35:28.124Z,0
2016-07-26T01:38:48.010Z,0
2016-07-26T01:41:57.457Z,0
2016-07-26T01:45:00.969Z,0
2016-07-26T01:48:14.576Z,0
2016-07-26T01:51:28.141Z,0
2016-07-26T01:54:48.040Z,0
2016-07-26T01:57:57.448Z,0
2016-07-26T02:01:00.804Z,0
2016-07-26T02:04:14.610Z,0
2016-07-26T02:07:28.371Z,0
2016-07-26T02:10:48.315Z,0
2016-07-26T02:13:51.768Z,0
2016-07-26T02:17:05.208Z,0
2016-07-26T02:20:19.189Z,0
2016-07-26T02:23:32.458Z,0
2016-07-26T02:26:52.120Z,0
2016-07-26T02:29:55.326Z,0
2016-07-26T02:33:08.638Z,1
2016-07-26T02:36:22.443Z,0
2016-07-26T02:39:36.226Z,1
2016-07-26T02:42:56.150Z,1
2016-07-26T02:45:59.458Z,3
2016-07-26T02:49:12.853Z,3
2016-07-26T02:52:26.220Z,5
2016-07-26T02:55:39.639Z,6
2016-07-26T02:58:53.367Z,9
2016-07-26T03:02:07.017Z,13
2016-07-26T03:05:20.969Z,20
2016-07-26T03:08:34.635Z,28
2016-07-26T03:11:54.258Z,38
2016-07-26T03:14:57.667Z,50
2016-07-26T03:18:11.440Z,63
2016-07-26T03:21:25.085Z,77
2016-07-26T03:24:38.998Z,91
2016-07-26T03:27:52.864Z,107
2016-07-26T03:31:07.094Z,129
2016-07-26T03:34:20.702Z,156
2016-07-26T03:37:34.545Z,180
2016-07-26T03:40:53.824Z,204
2016-07-26T03:43:57.064Z,226
2016-07-26T03:47:10.856Z,253
2016-07-26T03:50:24.705Z,285
2016-07-26T03:53:38.681Z,313
2016-07-26T03:56:52.470Z,343
2016-07-26T04:00:06.147Z,381
2016-07-26T04:03:20.233Z,426
2016-07-26T04:06:33.750Z,486
2016-07-26T04:09:53.363Z,550
2016-07-26T04:12:56.789Z,610
2016-07-26T04:16:10.415Z,665
2016-07-26T04:22:37.830Z,795
2016-07-26T04:25:57.364Z,870
2016-07-26T04:29:00.607Z,959
2016-07-26T04:32:14.374Z,1061
2016-07-26T04:35:28.116Z,1160
2016-07-26T04:38:48.112Z,1249
2016-07-26T04:41:57.417Z,1354
2016-07-26T04:45:01.025Z,1487
2016-07-26T04:48:14.460Z,1590
2016-07-26T04:51:27.965Z,1665
2016-07-26T04:54:41.555Z,1792
2016-07-26T04:57:55.111Z,1983
2016-07-26T05:01:07.501Z,2053
2016-07-26T05:07:34.456Z,1988
2016-07-26T05:10:54.007Z,2015
2016-07-26T05:13:57.302Z,1915
2016-07-26T05:17:11.160Z,2415
2016-07-26T05:20:24.804Z,2404
2016-07-26T05:23:38.574Z,2428
2016-07-26T05:26:52.477Z,2066
2016-07-26T05:30:06.099Z,2193
2016-07-26T05:36:33.979Z,2782
2016-07-26T05:39:53.831Z,2623
2016-07-26T05:42:57.357Z,2949
2016-07-26T05:46:11.244Z,3264
2016-07-26T05:52:38.809Z,3103
2016-07-26T05:55:52.725Z,3547
2016-07-26T05:59:06.103Z,3056
2016-07-26T06:02:19.973Z,3642
2016-07-26T06:05:33.802Z,3489
2016-07-26T06:08:53.220Z,3911
2016-07-26T06:11:56.824Z,4068
2016-07-26T06:15:10.830Z,4275
2016-07-26T06:18:24.782Z,4329
2016-07-26T06:21:39.002Z,4623
2016-07-26T06:24:53.395Z,4922
2016-07-26T06:28:07.357Z,5219
2016-07-26T06:31:21.631Z,6770
2016-07-26T06:34:36.061Z,1045
2016-07-26T06:37:56.286Z,3421
2016-07-26T06:41:00.285Z,10660
2016-07-26T06:44:14.523Z,5771
2016-07-26T06:47:28.752Z,5887
2016-07-26T06:50:48.826Z,4566
2016-07-26T06:53:52.542Z,4955
2016-07-26T06:57:06.416Z,7278
2016-07-26T07:00:20.421Z,5888
2016-07-26T07:03:34.527Z,6030
2016-07-26T07:06:54.420Z,8984
2016-07-26T07:09:58.060Z,7397
2016-07-26T07:13:12.260Z,9055
2016-07-26T07:16:26.794Z,6934
2016-07-26T07:19:40.687Z,6948
2016-07-26T07:22:55.046Z,6821
2016-07-26T07:26:09.179Z,6792
2016-07-26T07:29:23.067Z,6519
2016-07-26T07:32:37.231Z,9309
2016-07-26T07:35:57.579Z,4768
2016-07-26T07:39:01.490Z,3712
2016-07-26T07:42:15.697Z,7657
2016-07-26T07:45:29.876Z,9636
2016-07-26T07:48:50.455Z,8919
2016-07-26T07:51:54.658Z,8845
2016-07-26T07:55:09.143Z,8918
2016-07-26T07:58:23.231Z,8825
2016-07-26T08:01:37.813Z,8426
2016-07-26T08:04:52.282Z,8292
2016-07-26T08:08:06.894Z,8413
2016-07-26T08:11:21.419Z,8690
2016-07-26T08:14:35.716Z,9012
2016-07-26T08:17:56.325Z,9495
2016-07-26T08:21:00.363Z,10092
2016-07-26T08:24:14.870Z,11690
2016-07-26T08:27:28.870Z,1238
2016-07-26T08:30:49.071Z,560
2016-07-26T08:33:53.195Z,531
2016-07-26T08:37:07.478Z,2356
2016-07-26T08:40:21.640Z,510
2016-07-26T08:43:36.123Z,1506
2016-07-26T08:46:56.185Z,1000
2016-07-26T08:50:00.221Z,2422
2016-07-26T08:53:14.309Z,6856
2016-07-26T08:56:28.696Z,7355
2016-07-26T08:59:48.846Z,5958
2016-07-26T09:02:52.813Z,13929
2016-07-26T09:06:07.150Z,11191
2016-07-26T09:09:21.085Z,13117
2016-07-26T09:12:35.463Z,15182
2016-07-26T09:15:55.243Z,10789
2016-07-26T09:18:58.999Z,11647
2016-07-26T09:22:12.610Z,12916
2016-07-26T09:25:26.562Z,12316
2016-07-26T09:28:40.854Z,13617
2016-07-26T09:31:54.872Z,10705
2016-07-26T09:35:09.089Z,6517
2016-07-26T09:38:20.968Z,6932
2016-07-26T09:41:34.951Z,6746
2016-07-26T09:44:55.081Z,5723
2016-07-26T09:47:58.773Z,4624
2016-07-26T09:51:12.902Z,3947
2016-07-26T09:54:26.986Z,4359
2016-07-26T09:57:40.930Z,4490
2016-07-26T10:00:54.663Z,6274
2016-07-26T10:04:08.348Z,6952
2016-07-26T10:07:22.773Z,7413
2016-07-26T10:10:37.005Z,7651
2016-07-26T10:13:57.273Z,8499
2016-07-26T10:17:01.108Z,8342
2016-07-26T10:20:15.154Z,9171
2016-07-26T10:23:29.837Z,7591
2016-07-26T10:26:50.095Z,7478
2016-07-26T10:29:53.946Z,5297
2016-07-26T10:33:08.410Z,5659
2016-07-26T10:36:22.747Z,8025
2016-07-26T10:39:36.847Z,8234
2016-07-26T10:42:56.880Z,8849
2016-07-26T10:46:00.831Z,9038
2016-07-26T10:49:15.233Z,7606
2016-07-26T10:52:29.426Z,6293
2016-07-26T10:55:50.019Z,6877
2016-07-26T10:58:53.797Z,7430
2016-07-26T11:02:07.826Z,6244
2016-07-26T11:05:22.428Z,6062
2016-07-26T11:08:36.591Z,6306
2016-07-26T11:11:56.514Z,5564
2016-07-26T11:15:00.340Z,5706
2016-07-26T11:18:14.413Z,6437
2016-07-26T11:21:28.825Z,6350
2016-07-26T11:24:49.021Z,5951
2016-07-26T11:27:52.939Z,5218
2016-07-26T11:31:07.298Z,6679
2016-07-26T11:37:34.329Z,6216
2016-07-26T11:40:54.838Z,6050
2016-07-26T11:43:58.638Z,6221
2016-07-26T11:47:12.993Z,5946
2016-07-26T11:50:27.265Z,5713
2016-07-26T11:53:42.325Z,4870
2016-07-26T11:56:55.546Z,3650
2016-07-26T12:00:09.608Z,3998
2016-07-26T12:03:23.725Z,4408
2016-07-26T12:06:38.204Z,4722
2016-07-26T12:09:52.752Z,4534
2016-07-26T12:13:07.407Z,4873
2016-07-26T12:16:21.875Z,5444
2016-07-26T12:19:36.261Z,5513
2016-07-26T12:22:56.794Z,4840
2016-07-26T12:26:00.657Z,4552
2016-07-26T12:29:15.301Z,3739
2016-07-26T12:32:29.867Z,3800
2016-07-26T12:35:50.546Z,4975
2016-07-26T12:38:54.649Z,5461
2016-07-26T12:42:08.869Z,5096
2016-07-26T12:45:23.464Z,4718
2016-07-26T12:48:38.232Z,4399
2016-07-26T12:51:52.421Z,4564
2016-07-26T12:55:07.113Z,4209
2016-07-26T12:58:21.259Z,2766
2016-07-26T13:01:35.090Z,1961
2016-07-26T13:04:55.620Z,2045
2016-07-26T13:07:59.365Z,2733
2016-07-26T13:11:13.746Z,3585
2016-07-26T13:14:28.144Z,3124
2016-07-26T13:17:48.368Z,2995
2016-07-26T13:20:52.120Z,2931
2016-07-26T13:24:06.352Z,3065
2016-07-26T13:27:20.896Z,3173
2016-07-26T13:30:35.180Z,3349
2016-07-26T13:33:55.332Z,3178
2016-07-26T13:36:58.989Z,2978
2016-07-26T13:40:13.135Z,2823
2016-07-26T13:43:27.052Z,2737
2016-07-26T13:46:41.138Z,2675
2016-07-26T13:49:55.097Z,2613
2016-07-26T13:53:09.230Z,2465
2016-07-26T13:56:23.498Z,2311
2016-07-26T13:59:37.724Z,2163
2016-07-26T14:02:58.050Z,2025
2016-07-26T14:06:01.841Z,1972
2016-07-26T14:09:16.277Z,1722
2016-07-26T14:12:30.855Z,1674
2016-07-26T14:15:50.589Z,1804
2016-07-26T14:18:54.383Z,1570
2016-07-26T14:22:08.569Z,1390
2016-07-26T14:25:22.768Z,1396
2016-07-26T14:28:36.856Z,1496
2016-07-26T14:31:57.145Z,1451
2016-07-26T14:35:00.792Z,1757
2016-07-26T14:38:14.957Z,1846
2016-07-26T14:41:28.696Z,2454
2016-07-26T14:44:48.803Z,2159
2016-07-26T14:47:52.618Z,2181
2016-07-26T14:51:06.486Z,1630
2016-07-26T14:54:20.575Z,1361
2016-07-26T14:57:34.447Z,1332
2016-07-26T15:00:54.219Z,1215
2016-07-26T15:03:57.938Z,1145
2016-07-26T15:07:12.134Z,1146
2016-07-26T15:10:26.171Z,1129
2016-07-26T15:13:40.372Z,1111
2016-07-26T15:16:54.910Z,1088
2016-07-26T15:20:09.384Z,1070
2016-07-26T15:23:23.672Z,1049
2016-07-26T15:26:37.505Z,1036
2016-07-26T15:29:57.831Z,1043
2016-07-26T15:33:01.545Z,1031
2016-07-26T15:36:15.516Z,1052
2016-07-26T15:39:29.873Z,1021
2016-07-26T15:42:49.732Z,1035
2016-07-26T15:45:53.355Z,1004
2016-07-26T15:49:07.690Z,993
2016-07-26T15:52:21.738Z,931
2016-07-26T15:55:36.183Z,883
2016-07-26T15:58:56.735Z,877
2016-07-26T16:02:00.235Z,876
2016-07-26T16:05:14.429Z,885
2016-07-26T16:08:28.299Z,900
2016-07-26T16:11:48.403Z,917
2016-07-26T16:14:52.132Z,907
2016-07-26T16:18:06.011Z,911
2016-07-26T16:21:20.075Z,901
2016-07-26T16:24:35.281Z,884
2016-07-26T16:27:54.680Z,883
2016-07-26T16:30:58.284Z,881
2016-07-26T16:34:12.395Z,919
2016-07-26T16:37:26.722Z,911
2016-07-26T16:40:41.132Z,860
2016-07-26T16:43:55.405Z,832
2016-07-26T16:47:09.256Z,815
2016-07-26T16:50:23.610Z,604
2016-07-26T16:53:37.553Z,774
2016-07-26T16:56:57.714Z,745
2016-07-26T17:00:01.293Z,749
2016-07-26T17:03:15.260Z,745
2016-07-26T17:06:29.013Z,748
2016-07-26T17:09:49.079Z,745
2016-07-26T17:12:52.819Z,741
2016-07-26T17:16:07.112Z,735
2016-07-26T17:19:21.074Z,723
2016-07-26T17:22:33.406Z,709
2016-07-26T17:25:53.625Z,695
2016-07-26T17:28:57.279Z,688
2016-07-26T17:32:11.461Z,680
2016-07-26T17:35:25.639Z,667
2016-07-26T17:38:39.512Z,678
2016-07-26T17:41:53.661Z,660
2016-07-26T17:45:07.900Z,638
2016-07-26T17:48:22.127Z,609
2016-07-26T17:51:36.205Z,574
2016-07-26T17:54:56.562Z,565
2016-07-26T17:58:00.191Z,544
2016-07-26T18:01:14.563Z,523
2016-07-26T18:04:28.567Z,493
2016-07-26T18:07:48.990Z,458
2016-07-26T18:10:52.657Z,433
2016-07-26T18:14:06.857Z,422
2016-07-26T18:17:21.232Z,388
2016-07-26T18:20:35.542Z,359
2016-07-26T18:23:55.418Z,335
2016-07-26T18:26:59.225Z,330
2016-07-26T18:30:12.962Z,293
2016-07-26T18:33:26.815Z,274
2016-07-26T18:36:41.095Z,250
2016-07-26T18:39:54.859Z,225
2016-07-26T18:43:08.350Z,199
2016-07-26T18:46:22.508Z,178
2016-07-26T18:49:36.409Z,154
2016-07-26T18:52:56.388Z,131
2016-07-26T18:55:59.994Z,110
2016-07-26T18:59:14.178Z,92
2016-07-26T19:02:27.876Z,75
2016-07-26T19:05:41.785Z,60
2016-07-26T19:08:55.632Z,48
2016-07-26T19:12:09.357Z,37
2016-07-26T19:15:22.905Z,29
2016-07-26T19:18:37.071Z,21
2016-07-26T19:21:56.887Z,15
2016-07-26T19:25:00.370Z,10
2016-07-26T19:28:14.174Z,7
2016-07-26T19:31:28.089Z,4
2016-07-26T19:34:41.962Z,2
2016-07-26T19:37:55.896Z,1
2016-07-26T19:41:09.378Z,1
2016-07-26T19:44:23.189Z,1
2016-07-26T19:47:36.487Z,1
2016-07-26T19:50:56.403Z,0
2016-07-26T19:53:59.738Z,0
2016-07-26T19:57:13.542Z,0
2016-07-26T20:00:27.656Z,0
2016-07-26T20:03:41.426Z,0
2016-07-26T20:06:55.277Z,0
2016-07-26T20:10:09.094Z,0
2016-07-26T20:13:22.353Z,0
2016-07-26T20:16:35.995Z,0
2016-07-26T20:19:55.438Z,0
2016-07-26T20:22:58.972Z,0
2016-07-26T20:26:12.727Z,0
2016-07-26T20:29:26.744Z,0
2016-07-26T20:32:40.744Z,0
2016-07-26T20:35:54.330Z,0
2016-07-26T20:39:08.461Z,0
2016-07-26T20:42:22.700Z,0
2016-07-26T20:51:59.355Z,0
2016-07-26T20:55:13.543Z,0
2016-07-26T20:58:27.558Z,0
2016-07-26T21:01:41.608Z,0
2016-07-26T21:04:55.252Z,0
2016-07-26T21:08:08.720Z,0
2016-07-26T21:11:22.628Z,0
2016-07-26T21:14:36.468Z,0
2016-07-26T21:17:56.258Z,0
2016-07-26T21:20:59.554Z,0
2016-07-26T21:24:13.466Z,0
2016-07-26T21:27:27.151Z,0
2016-07-26T21:30:40.903Z,0
2016-07-26T21:33:54.307Z,0
2016-07-26T21:37:07.916Z,0
2016-07-26T21:40:21.638Z,0
2016-07-26T21:43:35.468Z,0
2016-07-26T21:46:55.006Z,0
2016-07-26T21:49:58.348Z,0
2016-07-26T21:53:11.901Z,0
2016-07-26T21:56:25.185Z,0
2016-07-26T21:59:39.048Z,0
2016-07-26T22:02:53.243Z,0
2016-07-26T22:06:06.272Z,0
2016-07-26T22:09:20.114Z,0
2016-07-26T22:12:34.210Z,0
2016-07-26T22:15:54.375Z,0
2016-07-26T22:18:57.442Z,0
2016-07-26T22:22:11.066Z,0
2016-07-26T22:25:24.012Z,0
2016-07-26T22:28:37.893Z,0
2016-07-26T22:31:57.770Z,0
2016-07-26T22:35:00.958Z,0
2016-07-26T22:38:14.630Z,0
2016-07-26T22:41:27.843Z,0
2016-07-26T22:44:40.923Z,0
2016-07-26T22:47:54.524Z,0
2016-07-26T22:51:08.088Z,0
2016-07-26T22:54:21.416Z,0
2016-07-26T22:57:35.363Z,0
2016-07-26T23:00:54.868Z,0
2016-07-26T23:03:57.946Z,0
2016-07-26T23:07:09.671Z,0
2016-07-26T23:10:23.199Z,0
2016-07-26T23:13:36.675Z,0
2016-07-26T23:16:56.376Z,0
2016-07-26T23:19:59.497Z,0
2016-07-26T23:23:13.077Z,0
2016-07-26T23:26:26.418Z,0
2016-07-26T23:29:39.482Z,0
2016-07-26T23:32:58.656Z,0
2016-07-26T23:36:01.835Z,0
2016-07-26T23:39:13.781Z,0
2016-07-26T23:42:27.020Z,0
2016-07-26T23:45:40.288Z,0
2016-07-26T23:48:53.758Z,0
2016-07-26T23:52:07.094Z,0
2016-07-26T23:55:20.565Z,0
2016-07-26T23:58:33.978Z,0
